Time;durP1;ratioP1;P1;durP2;ratioP2;P2;SDS_P1;SDS_P2;PMS_P1;PMS_P2;Temp;Humidity;BMP_temperature;BMP_pressure;BME280_temperature;BME280_humidity;BME280_pressure;Samples;Min_cycle;Max_cycle;Signal;HPM_P1;HPM_P2
2024/02/03 00:00:15;;;;;;;13.52;4.72;;;10.70;99.90;;;;;;5062850;28;20194;-47
2024/02/03 00:02:41;;;;;;;17.65;6.55;;;10.70;99.90;;;;;;5062043;28;20187;-41
2024/02/03 00:05:07;;;;;;;16.80;7.75;;;10.70;99.90;;;;;;5062215;28;20555;-44
2024/02/03 00:07:33;;;;;;;18.67;8.30;;;10.70;99.90;;;;;;5062371;28;20175;-47
2024/02/03 00:09:59;;;;;;;19.48;7.65;;;10.70;99.90;;;;;;5060997;28;20197;-42
2024/02/03 00:12:28;;;;;;;19.92;7.50;;;10.70;99.90;;;;;;5062408;28;20190;-45
2024/02/03 00:14:55;;;;;;;18.30;7.70;;;10.70;99.90;;;;;;5061854;28;20232;-45
2024/02/03 00:17:21;;;;;;;19.55;7.78;;;10.70;99.90;;;;;;5061863;28;20218;-46
2024/02/03 00:19:47;;;;;;;20.60;7.22;;;10.70;99.90;;;;;;5061456;28;20698;-46
2024/02/03 00:22:13;;;;;;;16.60;7.88;;;10.70;99.90;;;;;;5062481;28;20187;-43
2024/02/03 00:24:38;;;;;;;17.52;8.07;;;10.70;99.90;;;;;;5062205;28;20191;-44
2024/02/03 00:27:05;;;;;;;19.05;7.50;;;10.60;99.90;;;;;;5062254;28;20191;-44
2024/02/03 00:29:31;;;;;;;19.40;7.25;;;10.60;99.90;;;;;;5062059;28;20191;-42
2024/02/03 00:31:57;;;;;;;19.42;7.57;;;10.60;99.90;;;;;;5061174;28;20264;-46
2024/02/03 00:34:23;;;;;;;19.63;6.95;;;10.60;99.90;;;;;;5062120;28;20195;-42
2024/02/03 00:36:48;;;;;;;23.35;7.35;;;10.60;99.90;;;;;;5061682;28;20241;-43
2024/02/03 00:39:14;;;;;;;16.27;6.97;;;10.60;99.90;;;;;;5060787;28;20190;-42
2024/02/03 00:41:40;;;;;;;19.98;6.88;;;10.60;99.90;;;;;;5062014;28;20178;-43
2024/02/03 00:44:06;;;;;;;18.77;6.95;;;10.60;99.90;;;;;;5061601;28;20183;-43
2024/02/03 00:46:32;;;;;;;18.45;7.20;;;10.60;99.90;;;;;;5061897;28;20555;-47
2024/02/03 00:48:57;;;;;;;19.38;7.45;;;10.60;99.90;;;;;;5059689;28;20205;-44
2024/02/03 00:51:23;;;;;;;16.88;6.25;;;10.60;99.90;;;;;;5061272;28;20202;-41
2024/02/03 00:53:49;;;;;;;17.70;6.78;;;10.60;99.90;;;;;;5044001;28;20279;-45
2024/02/03 00:56:15;;;;;;;20.35;6.72;;;10.60;99.90;;;;;;5059853;28;20218;-51
2024/02/03 00:58:40;;;;;;;18.65;6.35;;;10.70;99.90;;;;;;5061565;28;20334;-45
2024/02/03 01:01:07;;;;;;;16.73;6.30;;;10.70;99.90;;;;;;5061607;28;20734;-49
2024/02/03 01:03:33;;;;;;;17.48;6.70;;;10.70;99.90;;;;;;5059946;28;21168;-45
2024/02/03 01:05:58;;;;;;;15.95;6.43;;;10.70;99.90;;;;;;5061313;28;20190;-43
2024/02/03 01:08:24;;;;;;;19.77;6.47;;;10.70;99.90;;;;;;5060971;28;20186;-45
2024/02/03 01:10:50;;;;;;;20.55;6.03;;;10.70;99.90;;;;;;5045700;28;20205;-42
2024/02/03 01:13:16;;;;;;;15.57;5.15;;;10.70;99.90;;;;;;5061244;28;20202;-43
2024/02/03 01:15:41;;;;;;;22.25;6.20;;;10.70;99.90;;;;;;5061206;28;20206;-45
2024/02/03 01:18:07;;;;;;;14.73;5.03;;;10.70;99.90;;;;;;5059920;28;20271;-45
2024/02/03 01:20:33;;;;;;;18.85;5.38;;;10.70;99.90;;;;;;5061151;28;20251;-41
2024/02/03 01:22:59;;;;;;;14.60;4.93;;;10.70;99.90;;;;;;5060836;28;20190;-45
2024/02/03 01:25:24;;;;;;;13.43;5.45;;;10.70;99.90;;;;;;5060865;28;21145;-46
2024/02/03 01:27:50;;;;;;;15.57;4.90;;;10.80;99.90;;;;;;5060812;28;20635;-45
2024/02/03 01:30:16;;;;;;;12.35;4.35;;;10.80;99.90;;;;;;5061287;28;20179;-39
2024/02/03 01:32:42;;;;;;;13.57;4.40;;;10.80;99.90;;;;;;5060695;28;20194;-43
2024/02/03 01:35:09;;;;;;;13.85;5.00;;;10.80;99.90;;;;;;5060468;28;20616;-44
2024/02/03 01:37:35;;;;;;;9.90;4.22;;;10.80;99.90;;;;;;5060332;28;20619;-42
2024/02/03 01:40:02;;;;;;;11.43;4.53;;;10.80;99.90;;;;;;5060148;28;20566;-44
2024/02/03 01:42:28;;;;;;;16.50;4.30;;;10.80;99.90;;;;;;5061094;28;20183;-43
2024/02/03 01:44:53;;;;;;;11.93;4.50;;;10.80;99.90;;;;;;5060683;28;20306;-46
2024/02/03 01:47:20;;;;;;;13.05;4.10;;;10.90;99.90;;;;;;5059468;28;20354;-47
2024/02/03 01:49:47;;;;;;;7.35;3.70;;;10.90;99.90;;;;;;5060525;28;20212;-44
2024/02/03 01:52:14;;;;;;;9.55;3.65;;;10.90;99.90;;;;;;5060971;28;20192;-43
2024/02/03 01:54:43;;;;;;;12.30;3.75;;;10.90;99.90;;;;;;5060213;28;20199;-45
2024/02/03 01:57:10;;;;;;;13.63;4.72;;;10.90;99.90;;;;;;5060501;28;21142;-44
2024/02/03 01:59:36;;;;;;;10.43;4.25;;;10.90;99.90;;;;;;5059576;28;20524;-41
2024/02/03 02:02:02;;;;;;;9.10;3.88;;;10.90;99.90;;;;;;5060697;28;20194;-50
2024/02/03 02:04:31;;;;;;;10.85;3.72;;;11.00;99.90;;;;;;5059940;28;20187;-47
2024/02/03 02:06:58;;;;;;;10.93;3.75;;;11.00;99.90;;;;;;5060702;28;20198;-48
2024/02/03 02:09:25;;;;;;;12.13;3.63;;;11.00;99.90;;;;;;5061060;28;20191;-46
2024/02/03 02:11:52;;;;;;;11.88;4.25;;;11.00;99.90;;;;;;5060596;28;21201;-45
2024/02/03 02:14:27;;;;;;;11.65;4.05;;;11.00;99.90;;;;;;5061061;28;20191;-47
2024/02/03 02:16:54;;;;;;;9.50;3.97;;;11.00;99.90;;;;;;5059688;28;20210;-45
2024/02/03 02:19:20;;;;;;;8.10;4.13;;;11.10;99.90;;;;;;5059906;28;20702;-44
2024/02/03 02:21:45;;;;;;;13.80;4.55;;;11.10;99.90;;;;;;5059242;28;20224;-45
2024/02/03 02:24:14;;;;;;;11.48;4.53;;;11.10;99.90;;;;;;5060689;28;20198;-45
2024/02/03 02:26:40;;;;;;;9.15;4.15;;;11.10;99.90;;;;;;5060323;28;20559;-47
2024/02/03 02:29:05;;;;;;;10.32;4.45;;;11.10;99.90;;;;;;5060730;28;20213;-46
2024/02/03 02:31:31;;;;;;;9.50;4.45;;;11.10;99.90;;;;;;5060310;28;20213;-42
2024/02/03 02:33:57;;;;;;;9.13;4.60;;;11.10;99.90;;;;;;5059881;28;20194;-45
2024/02/03 02:36:23;;;;;;;13.80;5.45;;;11.20;99.90;;;;;;5061167;28;20214;-46
2024/02/03 02:38:48;;;;;;;12.20;4.65;;;11.20;99.90;;;;;;5064485;28;20193;-45
2024/02/03 02:41:14;;;;;;;10.50;4.25;;;11.20;99.90;;;;;;5064251;28;20268;-46
2024/02/03 02:43:40;;;;;;;14.10;5.45;;;11.20;99.90;;;;;;5064067;28;20194;-40
2024/02/03 02:46:06;;;;;;;12.25;4.60;;;11.20;99.90;;;;;;5064544;28;20244;-40
2024/02/03 02:48:32;;;;;;;11.40;4.00;;;11.20;99.90;;;;;;5064093;28;21086;-44
2024/02/03 02:50:58;;;;;;;11.77;5.15;;;11.20;99.90;;;;;;5063509;28;20197;-40
2024/02/03 02:53:25;;;;;;;13.63;4.65;;;11.10;99.90;;;;;;5063611;28;20182;-47
2024/02/03 02:55:51;;;;;;;12.15;4.65;;;11.20;99.90;;;;;;5063598;28;20230;-48
2024/02/03 02:58:17;;;;;;;10.70;3.92;;;11.20;99.90;;;;;;5063578;28;20197;-45
2024/02/03 03:00:43;;;;;;;13.88;4.97;;;11.20;99.90;;;;;;5079226;28;20190;-42
2024/02/03 03:03:08;;;;;;;12.50;4.90;;;11.20;99.90;;;;;;5064099;28;20214;-41
2024/02/03 03:05:34;;;;;;;11.35;4.93;;;11.20;99.90;;;;;;5063568;28;20960;-43
2024/02/03 03:08:00;;;;;;;8.18;3.67;;;11.20;99.90;;;;;;5063169;28;20206;-42
2024/02/03 03:10:26;;;;;;;11.32;4.55;;;11.20;99.90;;;;;;5063953;28;20217;-43
2024/02/03 03:12:51;;;;;;;15.57;5.43;;;11.20;99.90;;;;;;5063236;28;20221;-42
2024/02/03 03:15:18;;;;;;;12.50;4.90;;;11.20;99.90;;;;;;5063943;28;20283;-40
2024/02/03 03:17:44;;;;;;;16.38;5.43;;;11.10;99.90;;;;;;5063258;28;20200;-44
2024/02/03 03:20:10;;;;;;;14.07;5.50;;;11.10;99.90;;;;;;5063270;28;20190;-48
2024/02/03 03:22:36;;;;;;;17.25;5.20;;;11.10;99.90;;;;;;5061219;28;20241;-44
2024/02/03 03:25:02;;;;;;;18.20;5.35;;;11.10;99.90;;;;;;5063997;28;20198;-50
2024/02/03 03:27:27;;;;;;;16.15;5.50;;;11.10;99.90;;;;;;5058628;28;21718;-43
2024/02/03 03:29:53;;;;;;;12.18;4.72;;;11.00;99.90;;;;;;5062753;28;20190;-45
2024/02/03 03:32:19;;;;;;;15.55;5.05;;;11.00;99.90;;;;;;5063162;28;20285;-46
2024/02/03 03:34:45;;;;;;;13.32;4.70;;;11.00;99.90;;;;;;5062533;28;20244;-42
2024/02/03 03:37:10;;;;;;;16.55;4.90;;;11.00;99.90;;;;;;5062888;28;20229;-42
2024/02/03 03:39:36;;;;;;;16.23;5.32;;;10.90;99.90;;;;;;5062932;28;20198;-45
2024/02/03 03:42:02;;;;;;;14.38;5.30;;;10.90;99.90;;;;;;5063691;28;20592;-45
2024/02/03 03:44:28;;;;;;;12.77;5.22;;;10.90;99.90;;;;;;5063154;28;20272;-48
2024/02/03 03:46:55;;;;;;;14.65;5.10;;;10.90;99.90;;;;;;5062599;28;20194;-46
2024/02/03 03:49:20;;;;;;;13.38;5.18;;;10.90;99.90;;;;;;5061831;28;20209;-42
2024/02/03 03:51:46;;;;;;;12.45;4.90;;;10.90;99.90;;;;;;5062536;28;20194;-42
2024/02/03 03:54:12;;;;;;;12.90;4.80;;;10.90;99.90;;;;;;5063163;28;20737;-45
2024/02/03 03:56:37;;;;;;;16.95;5.10;;;10.90;99.90;;;;;;5062578;28;20218;-45
2024/02/03 03:59:04;;;;;;;13.40;4.93;;;10.90;99.90;;;;;;5062654;28;20191;-41
2024/02/03 04:01:29;;;;;;;16.30;5.35;;;10.90;99.90;;;;;;5057754;28;20194;-40
2024/02/03 04:03:55;;;;;;;14.40;5.20;;;10.90;99.90;;;;;;5062385;28;20541;-46
2024/02/03 04:06:21;;;;;;;12.65;4.63;;;10.90;99.90;;;;;;5062634;28;20201;-46
2024/02/03 04:08:46;;;;;;;14.45;4.47;;;10.90;99.90;;;;;;5061051;28;20222;-44
2024/02/03 04:11:12;;;;;;;13.48;4.38;;;10.90;99.90;;;;;;5062530;28;20187;-43
2024/02/03 04:13:41;;;;;;;11.27;4.47;;;10.90;99.90;;;;;;5062531;28;20223;-46
2024/02/03 04:16:06;;;;;;;14.23;5.70;;;10.90;99.90;;;;;;5062570;28;20726;-43
2024/02/03 04:18:32;;;;;;;10.52;4.90;;;10.90;99.90;;;;;;5044184;28;20260;-44
2024/02/03 04:20:58;;;;;;;12.38;4.95;;;10.90;99.90;;;;;;5062318;28;20205;-44
2024/02/03 04:23:24;;;;;;;13.60;5.57;;;10.90;99.90;;;;;;5060669;28;20198;-46
2024/02/03 04:25:49;;;;;;;12.40;5.40;;;10.90;99.90;;;;;;5061082;28;20194;-44
2024/02/03 04:28:15;;;;;;;15.20;5.40;;;10.90;99.90;;;;;;5061931;28;20190;-47
2024/02/03 04:30:42;;;;;;;16.83;5.15;;;10.90;99.90;;;;;;5061875;28;20194;-40
2024/02/03 04:33:08;;;;;;;18.73;5.20;;;10.90;99.90;;;;;;5061858;28;20213;-45
2024/02/03 04:35:34;;;;;;;14.60;4.90;;;10.90;99.90;;;;;;5061708;28;20194;-42
2024/02/03 04:38:02;;;;;;;14.75;5.00;;;10.90;99.90;;;;;;5062352;28;20182;-41
2024/02/03 04:40:29;;;;;;;14.40;5.40;;;10.90;99.90;;;;;;5062008;28;20244;-49
2024/02/03 04:42:54;;;;;;;14.85;5.72;;;10.90;99.90;;;;;;5062275;28;20195;-42
2024/02/03 04:45:20;;;;;;;13.00;5.45;;;10.90;99.90;;;;;;5061724;28;20182;-45
2024/02/03 04:47:47;;;;;;;11.93;5.25;;;10.90;99.90;;;;;;5062212;28;20179;-45
2024/02/03 04:50:12;;;;;;;16.58;5.43;;;10.90;99.90;;;;;;5061588;28;20191;-43
2024/02/03 04:52:39;;;;;;;11.18;4.60;;;10.80;99.90;;;;;;5031007;28;20217;-45
2024/02/03 04:55:05;;;;;;;11.32;4.88;;;10.80;99.90;;;;;;5060066;28;20206;-47
2024/02/03 04:57:31;;;;;;;10.30;4.63;;;10.70;99.90;;;;;;5077165;28;20225;-45
2024/02/03 04:59:57;;;;;;;12.82;5.50;;;10.70;99.90;;;;;;5061319;28;20190;-41
2024/02/03 05:02:22;;;;;;;13.23;5.15;;;10.70;99.90;;;;;;5057924;28;20616;-42
2024/02/03 05:04:48;;;;;;;9.93;4.03;;;10.70;99.90;;;;;;5060912;28;20269;-44
2024/02/03 05:07:14;;;;;;;16.10;5.03;;;10.60;99.90;;;;;;5061081;28;20205;-48
2024/02/03 05:09:39;;;;;;;10.48;4.43;;;10.60;99.90;;;;;;5060924;28;20205;-43
2024/02/03 05:12:06;;;;;;;12.50;4.63;;;10.60;99.90;;;;;;5059653;28;20673;-41
2024/02/03 05:14:31;;;;;;;12.77;4.55;;;10.60;99.90;;;;;;5061582;28;20192;-42
2024/02/03 05:16:59;;;;;;;12.60;4.53;;;10.50;99.90;;;;;;5076682;28;20222;-41
2024/02/03 05:19:26;;;;;;;15.15;5.60;;;10.50;99.90;;;;;;5059080;28;20360;-47
2024/02/03 05:21:52;;;;;;;17.60;5.63;;;10.50;99.90;;;;;;5061094;28;20197;-42
2024/02/03 05:24:17;;;;;;;14.52;4.78;;;10.50;99.90;;;;;;5061528;28;20191;-44
2024/02/03 05:26:43;;;;;;;14.85;4.82;;;10.50;99.90;;;;;;5059464;28;20198;-46
2024/02/03 05:29:09;;;;;;;13.35;5.47;;;10.50;99.90;;;;;;5060437;28;20205;-49
2024/02/03 05:31:35;;;;;;;14.93;5.53;;;10.50;99.90;;;;;;5061226;28;20308;-39
2024/02/03 05:34:00;;;;;;;15.25;6.13;;;10.60;99.90;;;;;;5060949;28;20190;-41
2024/02/03 05:36:26;;;;;;;16.38;5.30;;;10.60;99.90;;;;;;5060686;28;20225;-44
2024/02/03 05:38:52;;;;;;;12.63;5.65;;;10.60;99.90;;;;;;5060661;28;20264;-43
2024/02/03 05:41:18;;;;;;;11.98;5.10;;;10.60;99.90;;;;;;5076504;28;20285;-48
2024/02/03 05:43:43;;;;;;;15.30;5.38;;;10.60;99.90;;;;;;5059978;28;20233;-41
2024/02/03 05:46:09;;;;;;;18.90;5.93;;;10.60;99.90;;;;;;5060866;28;20187;-44
2024/02/03 05:48:35;;;;;;;16.75;6.20;;;10.60;99.90;;;;;;5060568;28;20186;-46
2024/02/03 05:51:00;;;;;;;10.45;5.40;;;10.50;99.90;;;;;;5060786;28;20792;-43
2024/02/03 05:53:26;;;;;;;15.02;5.35;;;10.50;99.90;;;;;;5061131;28;20190;-40
2024/02/03 05:55:52;;;;;;;14.90;5.50;;;10.50;99.90;;;;;;5060393;28;20237;-40
2024/02/03 05:58:18;;;;;;;16.35;5.45;;;10.50;99.90;;;;;;5061147;28;20565;-45
2024/02/03 06:00:43;;;;;;;14.13;5.03;;;10.40;99.90;;;;;;5060576;28;20194;-40
2024/02/03 06:03:09;;;;;;;12.77;5.50;;;10.40;99.90;;;;;;5056766;28;20191;-41
2024/02/03 06:05:35;;;;;;;14.65;5.07;;;10.40;99.90;;;;;;5058541;28;20190;-45
2024/02/03 06:08:00;;;;;;;21.33;5.57;;;10.40;99.90;;;;;;5060885;28;20214;-40
2024/02/03 06:10:26;;;;;;;18.50;5.72;;;10.40;99.90;;;;;;5060114;28;20183;-45
2024/02/03 06:12:52;;;;;;;15.98;4.90;;;10.40;99.90;;;;;;5079224;28;20682;-44
2024/02/03 06:15:17;;;;;;;11.43;4.97;;;10.40;99.90;;;;;;5064036;28;20196;-41
2024/02/03 06:17:44;;;;;;;16.58;5.18;;;10.30;99.90;;;;;;5064047;28;20272;-45
2024/02/03 06:20:10;;;;;;;16.27;5.10;;;10.40;99.90;;;;;;5064527;28;20289;-43
2024/02/03 06:22:36;;;;;;;15.88;5.30;;;10.40;99.90;;;;;;5064763;28;20256;-44
2024/02/03 06:25:01;;;;;;;17.48;5.65;;;10.40;99.90;;;;;;5064810;28;20190;-45
2024/02/03 06:27:27;;;;;;;15.82;5.00;;;10.40;99.90;;;;;;5064051;28;20244;-41
2024/02/03 06:29:53;;;;;;;11.48;4.25;;;10.40;99.90;;;;;;5063252;28;20194;-45
2024/02/03 06:32:18;;;;;;;13.65;4.75;;;10.40;99.90;;;;;;5062358;28;20285;-44
2024/02/03 06:34:44;;;;;;;18.92;4.50;;;10.40;99.90;;;;;;5063872;28;20654;-40
2024/02/03 06:37:10;;;;;;;15.70;4.72;;;10.40;99.90;;;;;;5046608;28;20214;-41
2024/02/03 06:39:36;;;;;;;13.77;5.00;;;10.40;99.90;;;;;;5064722;28;20178;-43
2024/02/03 06:42:01;;;;;;;10.38;4.25;;;10.40;99.90;;;;;;5064790;28;20201;-42
2024/02/03 06:44:27;;;;;;;11.93;4.30;;;10.40;99.90;;;;;;5078617;28;20281;-47
2024/02/03 06:46:53;;;;;;;16.13;4.63;;;10.40;99.90;;;;;;5063791;28;20321;-50
2024/02/03 06:49:19;;;;;;;14.50;5.28;;;10.40;99.90;;;;;;5062530;28;20222;-44
2024/02/03 06:51:44;;;;;;;13.25;4.78;;;10.40;99.90;;;;;;5063661;28;20560;-40
2024/02/03 06:54:10;;;;;;;15.18;5.10;;;10.40;99.90;;;;;;5063874;28;20190;-41
2024/02/03 06:56:36;;;;;;;19.15;5.22;;;10.40;99.90;;;;;;5063997;28;20218;-44
2024/02/03 06:59:02;;;;;;;13.27;4.80;;;10.40;99.90;;;;;;5062874;28;20197;-50
2024/02/03 07:01:27;;;;;;;13.57;4.88;;;10.50;99.90;;;;;;5064284;28;20182;-47
2024/02/03 07:03:53;;;;;;;17.60;5.45;;;10.50;99.90;;;;;;5063760;28;20218;-44
2024/02/03 07:06:19;;;;;;;16.15;5.60;;;10.50;99.90;;;;;;5061818;28;20199;-48
2024/02/03 07:08:45;;;;;;;12.80;5.50;;;10.60;99.90;;;;;;5063657;28;20182;-44
2024/02/03 07:11:11;;;;;;;16.20;5.68;;;10.60;99.90;;;;;;5063472;28;20243;-44
2024/02/03 07:13:38;;;;;;;20.90;5.55;;;10.60;99.90;;;;;;5061755;28;20281;-43
2024/02/03 07:16:05;;;;;;;14.30;5.65;;;10.60;99.90;;;;;;5062949;28;20567;-48
2024/02/03 07:18:30;;;;;;;13.32;5.05;;;10.70;99.90;;;;;;5062256;28;20222;-45
2024/02/03 07:20:57;;;;;;;15.10;5.57;;;10.70;99.90;;;;;;5063480;28;20627;-48
2024/02/03 07:23:22;;;;;;;15.75;5.03;;;10.70;99.90;;;;;;5062513;28;20191;-45
2024/02/03 07:25:48;;;;;;;15.20;5.05;;;10.70;99.90;;;;;;5061702;28;20558;-46
2024/02/03 07:28:14;;;;;;;14.70;5.13;;;10.70;99.90;;;;;;5063120;28;20689;-48
2024/02/03 07:30:40;;;;;;;11.40;5.15;;;10.70;99.90;;;;;;5063012;28;20259;-46
2024/02/03 07:33:07;;;;;;;13.95;5.20;;;10.70;99.90;;;;;;5063398;28;20183;-47
2024/02/03 07:35:36;;;;;;;14.75;5.05;;;10.70;99.90;;;;;;5061296;28;20232;-45
2024/02/03 07:38:02;;;;;;;18.85;6.85;;;10.80;99.90;;;;;;5061460;28;21403;-46
2024/02/03 07:40:27;;;;;;;14.38;5.75;;;10.80;99.90;;;;;;5044778;28;20215;-43
2024/02/03 07:42:53;;;;;;;21.48;5.55;;;10.80;99.90;;;;;;5060106;28;20195;-46
2024/02/03 07:45:19;;;;;;;14.10;5.50;;;10.80;99.90;;;;;;5063030;28;20197;-40
2024/02/03 07:47:45;;;;;;;13.07;5.50;;;10.80;99.90;;;;;;5062702;28;20556;-44
2024/02/03 07:50:11;;;;;;;11.40;5.20;;;10.80;99.90;;;;;;5062554;28;20194;-48
2024/02/03 07:52:37;;;;;;;12.25;6.22;;;10.80;99.90;;;;;;5062000;28;20529;-50
2024/02/03 07:55:04;;;;;;;17.35;5.88;;;10.90;99.90;;;;;;5062416;28;20193;-44
2024/02/03 07:57:30;;;;;;;14.77;5.35;;;10.80;99.90;;;;;;5062380;28;20767;-46
2024/02/03 07:59:55;;;;;;;14.55;5.72;;;10.90;99.90;;;;;;5062134;28;20259;-48
2024/02/03 08:02:21;;;;;;;14.75;5.00;;;10.90;99.90;;;;;;5062801;28;20654;-43
2024/02/03 08:04:47;;;;;;;14.73;5.35;;;10.90;99.90;;;;;;5061534;28;21280;-40
2024/02/03 08:07:12;;;;;;;16.75;5.05;;;10.90;99.90;;;;;;5062108;28;20564;-45
2024/02/03 08:09:38;;;;;;;14.20;5.00;;;10.80;99.90;;;;;;5061838;28;20183;-42
2024/02/03 08:12:04;;;;;;;14.00;5.20;;;10.90;99.90;;;;;;5077724;28;20195;-50
2024/02/03 08:14:30;;;;;;;14.93;4.97;;;10.90;99.90;;;;;;5062447;28;20696;-45
2024/02/03 08:16:56;;;;;;;15.35;5.13;;;10.90;99.90;;;;;;5062260;28;20249;-42
2024/02/03 08:19:22;;;;;;;17.70;5.80;;;10.90;99.90;;;;;;5062006;28;20275;-46
2024/02/03 08:21:48;;;;;;;14.15;4.82;;;10.90;99.90;;;;;;5061418;28;20198;-47
2024/02/03 08:24:14;;;;;;;18.23;5.68;;;10.90;99.90;;;;;;5061515;28;20202;-41
2024/02/03 08:26:40;;;;;;;15.45;5.30;;;10.90;99.90;;;;;;5061185;28;20240;-48
2024/02/03 08:29:06;;;;;;;15.85;5.32;;;10.90;99.90;;;;;;5060256;28;20889;-48
2024/02/03 08:31:32;;;;;;;16.08;4.75;;;10.90;99.90;;;;;;5061487;28;20205;-45
2024/02/03 08:33:57;;;;;;;15.00;4.80;;;11.00;99.90;;;;;;5060439;28;20194;-45
2024/02/03 08:36:23;;;;;;;15.02;4.75;;;11.00;99.90;;;;;;5061003;28;20456;-46
2024/02/03 08:38:49;;;;;;;11.10;4.07;;;11.00;99.90;;;;;;5060134;28;20285;-42
2024/02/03 08:41:15;;;;;;;17.38;4.47;;;11.00;99.90;;;;;;5061704;28;20277;-44
2024/02/03 08:43:41;;;;;;;14.65;3.90;;;11.10;99.90;;;;;;5062064;28;20194;-48
2024/02/03 08:46:08;;;;;;;9.07;3.45;;;11.10;99.90;;;;;;5061122;28;20194;-50
2024/02/03 08:48:34;;;;;;;12.73;3.92;;;11.10;99.90;;;;;;5059621;28;20186;-48
2024/02/03 08:50:59;;;;;;;20.27;4.15;;;11.10;99.90;;;;;;5061378;28;20232;-41
2024/02/03 08:53:25;;;;;;;18.45;4.10;;;11.10;99.90;;;;;;5061769;28;20658;-45
2024/02/03 08:55:51;;;;;;;14.18;4.18;;;11.10;99.90;;;;;;5060878;28;20203;-46
2024/02/03 08:58:17;;;;;;;14.65;4.80;;;11.10;99.90;;;;;;5061418;28;20968;-46
2024/02/03 09:00:42;;;;;;;15.38;4.25;;;11.10;99.90;;;;;;5060953;28;20210;-45
2024/02/03 09:03:08;;;;;;;12.50;3.58;;;11.20;99.90;;;;;;5061548;28;20183;-46
2024/02/03 09:05:34;;;;;;;12.75;4.43;;;11.20;99.90;;;;;;5060442;28;20253;-44
2024/02/03 09:07:59;;;;;;;16.38;4.32;;;11.20;99.90;;;;;;5061164;28;20269;-50
2024/02/03 09:10:25;;;;;;;18.15;4.68;;;11.20;99.90;;;;;;5060831;28;20190;-47
2024/02/03 09:12:52;;;;;;;12.43;4.40;;;11.30;99.90;;;;;;5060894;28;20206;-43
2024/02/03 09:15:17;;;;;;;21.08;5.00;;;11.30;99.90;;;;;;5059912;28;20199;-50
2024/02/03 09:17:43;;;;;;;18.80;4.93;;;11.30;99.90;;;;;;5060869;28;20552;-45
2024/02/03 09:20:10;;;;;;;11.30;4.20;;;11.30;99.90;;;;;;5059653;28;20230;-39
2024/02/03 09:22:35;;;;;;;20.45;5.05;;;11.40;99.90;;;;;;5061209;28;20191;-44
2024/02/03 09:25:01;;;;;;;18.73;4.78;;;11.40;99.90;;;;;;5059819;28;20197;-47
2024/02/03 09:27:27;;;;;;;11.77;4.90;;;11.40;99.90;;;;;;5059172;28;20195;-44
2024/02/03 09:29:52;;;;;;;17.98;4.72;;;11.40;99.90;;;;;;5060295;28;20187;-50
2024/02/03 09:32:18;;;;;;;21.00;5.22;;;11.40;99.90;;;;;;5060724;28;21253;-46
2024/02/03 09:34:48;;;;;;;28.80;5.63;;;11.40;99.90;;;;;;5059995;28;20190;-42
2024/02/03 09:37:14;;;;;;;18.50;5.18;;;11.40;99.90;;;;;;5060605;28;20267;-42
2024/02/03 09:39:43;;;;;;;20.92;5.28;;;11.40;99.90;;;;;;5059023;28;20199;-38
2024/02/03 09:42:09;;;;;;;14.85;4.32;;;11.50;99.90;;;;;;5059778;28;20183;-50
2024/02/03 09:44:35;;;;;;;18.95;5.10;;;11.50;99.90;;;;;;5061031;28;20210;-42
2024/02/03 09:47:02;;;;;;;28.73;5.53;;;11.50;99.90;;;;;;5059447;28;20194;-42
2024/02/03 09:49:28;;;;;;;17.50;5.30;;;11.60;99.90;;;;;;5060245;28;20657;-44
2024/02/03 09:51:54;;;;;;;20.73;4.80;;;11.60;99.90;;;;;;5060477;28;20191;-47
2024/02/03 09:54:20;;;;;;;17.70;4.53;;;11.60;99.90;;;;;;5059881;28;20190;-44
2024/02/03 09:56:46;;;;;;;18.60;5.00;;;11.70;99.90;;;;;;5058985;28;20627;-48
2024/02/03 09:59:13;;;;;;;18.92;5.05;;;11.70;99.90;;;;;;5059701;28;20663;-43
2024/02/03 10:01:40;;;;;;;20.88;4.88;;;11.70;99.90;;;;;;5059773;28;20925;-47
2024/02/03 10:04:06;;;;;;;23.77;5.45;;;11.80;99.90;;;;;;5060299;28;20269;-46
2024/02/03 10:06:32;;;;;;;20.42;5.25;;;11.80;99.90;;;;;;5060191;28;20290;-42
2024/02/03 10:08:57;;;;;;;18.88;4.38;;;11.80;99.90;;;;;;5060004;28;20229;-42
2024/02/03 10:11:23;;;;;;;17.77;4.68;;;11.90;99.90;;;;;;5059456;28;20190;-44
2024/02/03 10:14:02;;;;;;;17.42;4.60;;;12.00;99.90;;;;;;5060701;28;20284;-43
2024/02/03 10:16:27;;;;;;;16.42;4.20;;;12.00;99.90;;;;;;5060265;28;20224;-41
2024/02/03 10:18:53;;;;;;;22.08;5.18;;;12.00;99.90;;;;;;5059694;28;20293;-47
2024/02/03 10:21:19;;;;;;;14.15;4.68;;;12.10;99.90;;;;;;5060199;28;20190;-42
2024/02/03 10:23:51;;;;;;;20.60;5.40;;;12.10;99.90;;;;;;5058383;28;20530;-48
2024/02/03 10:26:17;;;;;;;21.85;5.90;;;12.10;99.90;;;;;;5060496;28;20274;-43
2024/02/03 10:28:44;;;;;;;14.48;4.70;;;12.10;99.90;;;;;;5059644;28;20277;-44
2024/02/03 10:31:10;;;;;;;18.27;4.90;;;12.10;99.90;;;;;;5059392;28;20187;-44
2024/02/03 10:33:35;;;;;;;22.80;4.80;;;12.20;99.90;;;;;;5060854;28;20252;-43
2024/02/03 10:36:03;;;;;;;15.48;4.80;;;12.20;99.90;;;;;;5058631;28;20301;-49
2024/02/03 10:38:29;;;;;;;20.45;4.65;;;12.30;99.90;;;;;;5059095;28;20685;-45
2024/02/03 10:40:56;;;;;;;22.90;5.57;;;12.40;99.90;;;;;;5075327;28;20218;-43
2024/02/03 10:43:24;;;;;;;16.30;5.68;;;12.50;99.90;;;;;;5059422;28;20651;-43
2024/02/03 10:46:00;;;;;;;11.80;4.28;;;12.60;99.90;;;;;;5057819;28;20578;-52
2024/02/03 10:48:30;;;;;;;19.60;4.68;;;12.70;99.90;;;;;;5060598;28;20201;-44
2024/02/03 10:51:01;;;;;;;15.15;4.68;;;12.80;99.90;;;;;;5059491;28;20203;-46
2024/02/03 10:53:36;;;;;;;17.92;4.40;;;12.80;99.90;;;;;;5059700;28;20273;-47
2024/02/03 10:56:08;;;;;;;14.18;4.43;;;12.90;99.90;;;;;;5059440;28;20228;-45
2024/02/03 10:58:35;;;;;;;19.35;4.22;;;12.90;99.90;;;;;;5062881;28;20541;-43
2024/02/03 11:01:17;;;;;;;18.67;4.60;;;13.00;99.90;;;;;;5063123;28;20183;-45
2024/02/03 11:03:46;;;;;;;17.67;4.85;;;13.00;99.90;;;;;;5063204;28;20187;-39
2024/02/03 11:06:12;;;;;;;16.95;3.78;;;13.00;99.90;;;;;;5063103;28;20194;-43
2024/02/03 11:08:43;;;;;;;11.70;3.40;;;13.00;99.90;;;;;;5063409;28;20190;-43
2024/02/03 11:11:08;;;;;;;12.93;3.47;;;13.00;99.90;;;;;;5061906;28;20567;-45
2024/02/03 11:13:41;;;;;;;13.55;3.65;;;12.90;99.90;;;;;;5063028;28;20190;-49
2024/02/03 11:16:06;;;;;;;15.38;3.50;;;12.90;99.90;;;;;;5062802;28;20214;-43
2024/02/03 11:18:42;;;;;;;14.60;3.15;;;13.00;99.90;;;;;;5062422;28;20198;-47
2024/02/03 11:21:08;;;;;;;9.88;3.30;;;13.00;99.90;;;;;;5062865;28;20647;-47
2024/02/03 11:23:35;;;;;;;10.70;3.20;;;13.10;99.90;;;;;;5062627;28;20190;-41
2024/02/03 11:26:01;;;;;;;13.35;3.03;;;13.10;99.90;;;;;;5048195;28;20299;-47
2024/02/03 11:28:33;;;;;;;13.45;3.50;;;13.20;99.90;;;;;;5078857;28;21195;-51
2024/02/03 11:31:06;;;;;;;14.57;3.08;;;13.30;99.90;;;;;;5062240;28;20295;-49
2024/02/03 11:33:48;;;;;;;12.00;3.40;;;13.40;99.90;;;;;;5062450;28;20663;-48
2024/02/03 11:36:13;;;;;;;13.10;3.10;;;13.40;99.90;;;;;;5063030;28;20222;-45
2024/02/03 11:38:46;;;;;;;14.00;3.22;;;13.50;99.90;;;;;;5062456;28;20308;-48
2024/02/03 11:41:13;;;;;;;11.38;3.05;;;13.60;99.90;;;;;;5062984;28;20179;-45
2024/02/03 11:43:40;;;;;;;10.55;2.63;;;13.70;99.90;;;;;;5062374;28;20182;-41
2024/02/03 11:46:09;;;;;;;8.02;2.90;;;13.70;99.90;;;;;;5062559;28;20229;-48
2024/02/03 11:48:36;;;;;;;14.57;2.97;;;13.70;99.90;;;;;;5063021;28;20182;-51
2024/02/03 11:51:08;;;;;;;12.23;3.40;;;13.60;99.90;;;;;;5062569;28;20244;-44
2024/02/03 11:53:34;;;;;;;13.65;3.60;;;13.60;99.90;;;;;;5062940;28;20209;-48
2024/02/03 11:56:00;;;;;;;9.02;3.15;;;13.60;99.90;;;;;;5062413;28;20220;-44
2024/02/03 11:58:26;;;;;;;16.58;3.35;;;13.50;99.90;;;;;;5061974;28;20256;-45
2024/02/03 12:01:13;;;;;;;11.00;3.13;;;13.50;99.90;;;;;;5062068;28;20187;-44
2024/02/03 12:03:39;;;;;;;15.13;3.33;;;13.50;99.90;;;;;;5077400;28;20214;-43
2024/02/03 12:06:05;;;;;;;9.43;2.85;;;13.40;99.90;;;;;;5062371;28;20197;-47
2024/02/03 12:08:32;;;;;;;12.63;3.17;;;13.40;99.90;;;;;;5061490;28;20292;-50
2024/02/03 12:10:58;;;;;;;8.65;2.65;;;13.40;99.90;;;;;;5060992;28;20277;-48
2024/02/03 12:13:24;;;;;;;12.50;3.00;;;13.50;99.90;;;;;;5061927;28;20207;-41
2024/02/03 12:15:53;;;;;;;11.77;3.33;;;13.50;99.90;;;;;;5076811;28;20198;-45
2024/02/03 12:18:20;;;;;;;15.10;2.97;;;13.40;99.90;;;;;;5061817;28;20182;-41
2024/02/03 12:20:46;;;;;;;9.55;2.65;;;13.40;99.90;;;;;;5062455;28;20238;-44
2024/02/03 12:23:12;;;;;;;12.32;3.53;;;13.40;99.90;;;;;;5062088;28;20303;-50
2024/02/03 12:25:38;;;;;;;14.50;3.30;;;13.40;99.90;;;;;;5061739;28;20194;-43
2024/02/03 12:28:05;;;;;;;8.95;2.70;;;13.30;99.90;;;;;;5048224;28;20576;-43
2024/02/03 12:30:35;;;;;;;12.40;3.42;;;13.30;99.90;;;;;;5061677;28;20285;-44
2024/02/03 12:33:06;;;;;;;13.95;3.42;;;13.20;99.90;;;;;;5061428;28;20191;-44